Irlam, United Kingdom
Current Conditions -  °F | °C
As of 6:20 PM on Monday 26 Jan 2015 (Local Time) from EGCC Reporting Station
Broken Clouds Broken Clouds  
Wind Chill: 35°   Ceiling: 2800
Heat Index: 41°   Visibility: 6mi
Dew Point: 37°   Wind: 9mph
Humidity: 87%   Direction: 310°NW
Pressure: 30.3"   Gusts: NA
Location:  53.44°N, 2.42°W
Report Text: EGCC 261820Z 31008KT 9999 BKN028 05/03 Q1026 NOSIG
Loading
Personal Weather Stations






























Interactive Weather Map New forecast layout! Learn more

10-Day Weather Forecast

Advertisements
Track Severe Weather on mobile